createdAt,value
2022-08-05T00:01:27.644Z,25.62
2022-08-05T00:04:33.288Z,25.36
2022-08-05T00:08:00.060Z,25.27
2022-08-05T00:11:03.734Z,25.29
2022-08-05T00:14:13.104Z,25.10
2022-08-05T00:17:21.986Z,25.09
2022-08-05T00:20:29.128Z,25.11
2022-08-05T00:23:46.431Z,25.08
2022-08-05T00:26:52.075Z,25.01
2022-08-05T00:29:58.024Z,24.91
2022-08-05T00:33:05.630Z,24.98
2022-08-05T00:37:11.941Z,25.22
2022-08-05T00:39:58.435Z,25.46
2022-08-05T00:43:07.679Z,25.62
2022-08-05T00:46:12.315Z,25.85
2022-08-05T00:49:20.922Z,25.94
2022-08-05T00:52:28.620Z,26.06
2022-08-05T00:55:34.233Z,25.92
2022-08-05T00:58:47.775Z,26.41
2022-08-05T01:01:52.432Z,26.75
2022-08-05T01:04:57.019Z,26.96
2022-08-05T01:08:30.393Z,27.41
2022-08-05T01:11:37.415Z,27.96
2022-08-05T01:14:53.406Z,28.05
2022-08-05T01:18:06.709Z,28.13
2022-08-05T01:21:26.574Z,30.33
2022-08-05T01:24:51.977Z,31.73
2022-08-05T01:28:45.340Z,32.16
2022-08-05T01:31:55.630Z,31.73
2022-08-05T01:35:03.915Z,31.81
2022-08-05T01:38:27.120Z,31.17
2022-08-05T01:41:38.050Z,30.61
2022-08-05T01:44:53.835Z,29.38
2022-08-05T01:48:04.023Z,29.58
2022-08-05T01:51:17.157Z,29.16
2022-08-05T01:54:25.651Z,29.00
2022-08-05T01:58:12.555Z,29.22
2022-08-05T02:01:03.978Z,29.14
2022-08-05T02:04:10.773Z,29.30
2022-08-05T02:07:22.393Z,29.24
2022-08-05T02:10:35.720Z,29.54
2022-08-05T02:13:53.834Z,29.36
2022-08-05T02:17:29.674Z,29.13
2022-08-05T02:20:58.787Z,28.76
2022-08-05T02:24:10.622Z,28.68
2022-08-05T02:27:17.872Z,28.96
2022-08-05T02:30:54.137Z,29.31
2022-08-05T02:34:05.350Z,29.36
2022-08-05T02:37:11.532Z,29.30
2022-08-05T02:40:18.349Z,29.19
2022-08-05T02:43:24.285Z,28.90
2022-08-05T02:46:30.430Z,28.47
2022-08-05T02:49:42.790Z,28.44
2022-08-05T02:52:48.667Z,28.66
2022-08-05T02:56:00.318Z,28.08
2022-08-05T02:59:07.606Z,28.72
2022-08-05T03:02:14.657Z,28.82
2022-08-05T03:05:21.956Z,28.76
2022-08-05T03:08:45.905Z,28.91
2022-08-05T03:11:58.323Z,28.99
2022-08-05T03:15:03.956Z,29.17
2022-08-05T03:18:11.666Z,29.22
2022-08-05T03:21:16.881Z,29.04
2022-08-05T03:24:29.329Z,29.02
2022-08-05T03:27:57.986Z,29.02
2022-08-05T03:31:02.119Z,29.09
2022-08-05T03:34:06.890Z,29.14
2022-08-05T03:37:15.507Z,29.14
2022-08-05T03:40:24.375Z,29.08
2022-08-05T03:44:09.760Z,29.10
2022-08-05T03:47:00.868Z,29.07
2022-08-05T03:50:10.155Z,29.01
2022-08-05T03:55:54.208Z,29.01
2022-08-05T03:56:47.757Z,28.68
2022-08-05T03:59:59.666Z,28.97
2022-08-05T04:03:28.356Z,28.79
2022-08-05T04:06:36.285Z,28.94
2022-08-05T04:09:53.111Z,28.96
2022-08-05T04:12:59.181Z,28.77
2022-08-05T04:16:05.031Z,28.88
2022-08-05T04:19:14.129Z,28.12
2022-08-05T04:22:20.407Z,28.67
2022-08-05T04:25:56.912Z,28.75
2022-08-05T04:28:52.106Z,28.68
2022-08-05T04:31:56.994Z,28.58
2022-08-05T04:35:01.829Z,28.48
2022-08-05T04:38:07.726Z,28.46
2022-08-05T04:41:13.959Z,28.36
2022-08-05T04:44:21.332Z,28.35
2022-08-05T04:47:38.584Z,28.23
2022-08-05T04:51:03.532Z,27.50
2022-08-05T04:54:15.637Z,27.92
2022-08-05T04:57:21.092Z,27.92
2022-08-05T05:00:36.588Z,27.50
2022-08-05T05:03:41.793Z,28.05
2022-08-05T05:06:49.258Z,27.93
2022-08-05T05:09:58.217Z,27.83
2022-08-05T05:13:04.926Z,27.85
2022-08-05T05:16:09.915Z,27.78
2022-08-05T05:19:23.453Z,27.77
2022-08-05T05:22:31.135Z,27.71
2022-08-05T05:25:40.983Z,27.72
2022-08-05T05:28:46.271Z,27.73
2022-08-05T05:31:51.087Z,27.42
2022-08-05T05:34:56.089Z,27.35
2022-08-05T05:38:05.840Z,27.55
2022-08-05T05:41:16.375Z,27.47
2022-08-05T05:44:37.554Z,27.39
2022-08-05T05:48:06.949Z,27.39
2022-08-05T05:51:15.420Z,27.18
2022-08-05T05:54:20.978Z,27.30
2022-08-05T05:57:25.871Z,27.29
2022-08-05T06:00:47.433Z,27.24
2022-08-05T06:04:01.819Z,27.21
2022-08-05T06:07:08.448Z,27.07
2022-08-05T06:10:16.132Z,27.06
2022-08-05T06:13:23.672Z,27.00
2022-08-05T06:16:36.755Z,26.99
2022-08-05T06:19:42.386Z,26.83
2022-08-05T06:23:01.045Z,26.53
2022-08-05T06:26:13.683Z,26.17
2022-08-05T06:29:49.416Z,25.95
2022-08-05T06:32:52.305Z,25.78
2022-08-05T06:36:07.389Z,25.55
2022-08-05T06:39:14.787Z,25.39
2022-08-05T06:42:19.493Z,25.61
2022-08-05T06:45:44.548Z,25.36
2022-08-05T06:48:56.668Z,25.57
2022-08-05T06:52:03.682Z,25.27
2022-08-05T06:55:08.913Z,25.14
2022-08-05T06:58:29.186Z,25.24
2022-08-05T07:01:40.705Z,25.06
2022-08-05T07:04:46.906Z,25.31
2022-08-05T07:07:52.635Z,25.36
2022-08-05T07:10:58.274Z,25.32
2022-08-05T07:14:30.117Z,25.29
2022-08-05T07:17:59.046Z,25.21
2022-08-05T07:21:04.789Z,25.32
2022-08-05T07:24:11.949Z,25.29
2022-08-05T07:27:16.399Z,25.35
2022-08-05T07:30:27.292Z,25.27
2022-08-05T07:33:37.491Z,25.24
2022-08-05T07:36:44.529Z,25.34
2022-08-05T07:40:27.126Z,25.28
2022-08-05T07:43:20.801Z,25.20
2022-08-05T07:46:28.082Z,25.28
2022-08-05T07:49:32.727Z,25.20
2022-08-05T07:52:48.372Z,25.36
2022-08-05T07:56:06.350Z,25.29
2022-08-05T07:59:23.199Z,25.24
2022-08-05T08:03:14.050Z,25.23
2022-08-05T08:06:01.800Z,25.20
2022-08-05T08:09:07.175Z,25.28
2022-08-05T08:12:33.627Z,25.24
2022-08-05T08:16:49.850Z,25.27
2022-08-05T08:19:03.613Z,25.31
2022-08-05T08:22:11.999Z,25.38
2022-08-05T08:25:26.512Z,25.38
2022-08-05T08:28:36.964Z,25.37
2022-08-05T08:31:48.511Z,25.37
2022-08-05T08:34:53.722Z,25.40
2022-08-05T08:38:02.235Z,25.41
2022-08-05T08:41:10.394Z,25.27
2022-08-05T08:45:24.181Z,25.37
2022-08-05T08:48:11.404Z,25.36
2022-08-05T08:51:22.856Z,25.29
2022-08-05T08:54:38.213Z,24.91
2022-08-05T08:57:58.290Z,25.25
2022-08-05T09:01:04.061Z,25.23
2022-08-05T09:04:10.757Z,25.23
2022-08-05T09:07:19.610Z,25.36
2022-08-05T09:10:34.193Z,25.25
2022-08-05T09:14:00.946Z,25.28
2022-08-05T09:17:40.289Z,25.24
2022-08-05T09:20:37.836Z,25.28
2022-08-05T09:23:45.896Z,25.25
2022-08-05T09:26:58.772Z,25.30
2022-08-05T09:30:06.564Z,25.25
2022-08-05T09:33:15.330Z,25.31
2022-08-05T09:36:27.843Z,25.24
2022-08-05T09:39:45.234Z,25.22
2022-08-05T09:42:50.908Z,25.15
2022-08-05T09:46:06.828Z,25.25
2022-08-05T09:49:54.643Z,25.12
2022-08-05T09:52:59.756Z,25.08
2022-08-05T09:56:12.976Z,25.16
2022-08-05T09:59:18.326Z,25.12
2022-08-05T10:02:40.863Z,25.07
2022-08-05T10:05:47.419Z,25.04
2022-08-05T10:08:55.663Z,25.01
2022-08-05T10:12:30.819Z,25.07
2022-08-05T10:15:41.376Z,25.02
2022-08-05T10:18:48.290Z,24.99
2022-08-05T10:21:53.428Z,24.98
2022-08-05T10:24:58.334Z,24.98
2022-08-05T10:28:13.104Z,24.79
2022-08-05T10:32:52.877Z,24.90
2022-08-05T10:34:47.723Z,24.87
2022-08-05T10:37:55.011Z,24.90
2022-08-05T10:41:13.807Z,24.91
2022-08-05T10:44:23.792Z,24.94
2022-08-05T10:47:35.233Z,24.81
2022-08-05T10:51:05.159Z,24.75
2022-08-05T10:55:06.843Z,24.07
2022-08-05T10:58:15.567Z,24.69
2022-08-05T11:01:55.521Z,24.70
2022-08-05T11:05:11.521Z,24.69
2022-08-05T11:08:36.584Z,24.52
2022-08-05T11:11:44.619Z,24.36
2022-08-05T11:15:19.217Z,24.36
2022-08-05T11:18:32.455Z,24.25
2022-08-05T11:21:40.986Z,24.20
2022-08-05T11:26:06.074Z,24.10
2022-08-05T11:28:56.966Z,24.13
2022-08-05T11:32:21.098Z,23.96
2022-08-05T11:36:08.102Z,23.84
2022-08-05T11:39:14.428Z,24.01
2022-08-05T11:42:28.146Z,23.87
2022-08-05T11:46:15.611Z,23.96
2022-08-05T11:48:58.579Z,23.76
2022-08-05T11:52:11.069Z,23.82
2022-08-05T11:55:16.401Z,23.87
2022-08-05T11:58:52.845Z,23.75
2022-08-05T12:02:06.977Z,23.47
2022-08-05T12:05:36.125Z,23.59
2022-08-05T12:08:51.284Z,23.77
2022-08-05T12:11:56.307Z,23.83
2022-08-05T12:15:00.822Z,23.84
2022-08-05T12:18:10.668Z,23.79
2022-08-05T12:21:21.081Z,23.78
2022-08-05T12:24:28.214Z,23.60
2022-08-05T12:27:36.446Z,23.82
2022-08-05T12:31:02.105Z,23.80
2022-08-05T12:34:09.460Z,23.72
2022-08-05T12:37:29.948Z,23.62
2022-08-05T12:40:36.829Z,23.80
2022-08-05T12:44:14.505Z,23.60
2022-08-05T12:47:33.800Z,23.60
2022-08-05T12:50:39.128Z,23.64
2022-08-05T12:53:47.379Z,23.62
2022-08-05T12:57:09.176Z,23.59
2022-08-05T13:02:03.682Z,23.59
2022-08-05T13:03:51.626Z,23.47
2022-08-05T13:06:58.171Z,23.38
2022-08-05T13:10:11.192Z,23.45
2022-08-05T13:14:04.841Z,23.40
2022-08-05T13:16:56.877Z,23.48
2022-08-05T13:20:20.343Z,23.60
2022-08-05T13:23:26.560Z,23.49
2022-08-05T13:26:31.924Z,23.63
2022-08-05T13:29:37.788Z,23.58
2022-08-05T13:32:50.420Z,23.59
2022-08-05T13:35:56.230Z,23.83
2022-08-05T13:39:24.766Z,23.89
2022-08-05T13:42:32.875Z,23.91
2022-08-05T13:45:43.067Z,23.81
2022-08-05T13:48:57.600Z,23.75
2022-08-05T13:52:17.126Z,23.99
2022-08-05T13:55:41.762Z,23.91
2022-08-05T13:58:52.910Z,24.06
2022-08-05T14:02:00.500Z,24.11
2022-08-05T14:05:12.125Z,24.05
2022-08-05T14:08:27.517Z,23.79
2022-08-05T14:11:33.159Z,24.02
2022-08-05T14:14:58.314Z,23.81
2022-08-05T14:18:04.024Z,24.14
2022-08-05T14:22:07.065Z,23.89
2022-08-05T14:24:34.078Z,23.89
2022-08-05T14:27:40.386Z,23.79
2022-08-05T14:30:52.316Z,23.86
2022-08-05T14:34:00.590Z,23.88
2022-08-05T14:37:06.294Z,23.86
2022-08-05T14:40:14.069Z,23.89
2022-08-05T14:43:22.030Z,23.70
2022-08-05T14:46:46.587Z,23.39
2022-08-05T14:49:58.546Z,23.16
2022-08-05T14:53:05.734Z,23.12
2022-08-05T14:56:11.083Z,23.32
2022-08-05T14:59:16.805Z,23.22
2022-08-05T15:02:21.318Z,23.13
2022-08-05T15:05:29.684Z,22.84
2022-08-05T15:08:58.008Z,22.61
2022-08-05T15:11:59.339Z,22.38
2022-08-05T15:15:13.610Z,22.38
2022-08-05T15:18:20.239Z,22.38
2022-08-05T15:21:25.216Z,22.08
2022-08-05T15:24:35.278Z,21.98
2022-08-05T15:27:52.264Z,22.22
2022-08-05T15:30:59.461Z,22.06
2022-08-05T15:34:31.715Z,21.98
2022-08-05T15:38:32.636Z,21.93
2022-08-05T15:41:21.144Z,22.07
2022-08-05T15:44:21.589Z,22.01
2022-08-05T15:47:26.772Z,22.04
2022-08-05T15:50:31.731Z,21.93
2022-08-05T15:53:50.951Z,21.94
2022-08-05T15:56:56.152Z,21.84
2022-08-05T16:00:02.411Z,21.83
2022-08-05T16:03:09.765Z,21.79
2022-08-05T16:06:14.074Z,21.71
2022-08-05T16:09:25.792Z,21.81
2022-08-05T16:12:30.381Z,21.74
2022-08-05T16:15:35.645Z,21.71
2022-08-05T16:18:52.725Z,21.66
2022-08-05T16:21:59.986Z,21.65
2022-08-05T16:25:09.456Z,21.58
2022-08-05T16:28:15.616Z,21.60
2022-08-05T16:31:19.981Z,21.51
2022-08-05T16:34:26.282Z,21.66
2022-08-05T16:38:02.683Z,21.64
2022-08-05T16:40:59.659Z,21.66
2022-08-05T16:44:13.512Z,21.55
2022-08-05T16:47:28.727Z,21.67
2022-08-05T16:50:41.021Z,21.67
2022-08-05T16:54:04.852Z,21.60
2022-08-05T16:57:19.441Z,21.33
2022-08-05T17:00:34.693Z,21.58
2022-08-05T17:03:42.200Z,21.62
2022-08-05T17:06:53.021Z,21.66
2022-08-05T17:09:59.321Z,21.71
2022-08-05T17:13:04.047Z,21.58
2022-08-05T17:16:29.661Z,21.75
2022-08-05T17:19:34.177Z,21.81
2022-08-05T17:22:39.097Z,21.79
2022-08-05T17:25:43.511Z,21.70
2022-08-05T17:28:47.865Z,21.83
2022-08-05T17:31:59.000Z,21.97
2022-08-05T17:35:05.773Z,22.01
2022-08-05T17:38:12.246Z,21.74
2022-08-05T17:42:16.545Z,22.00
2022-08-05T17:44:50.783Z,22.07
2022-08-05T17:47:56.684Z,21.55
2022-08-05T17:51:01.837Z,22.26
2022-08-05T17:54:14.010Z,22.35
2022-08-05T17:57:18.558Z,22.17
2022-08-05T18:00:28.597Z,22.20
2022-08-05T18:03:58.627Z,22.00
2022-08-05T18:07:01.158Z,21.95
2022-08-05T18:10:07.310Z,21.97
2022-08-05T18:13:16.311Z,21.88
2022-08-05T18:16:23.508Z,21.80
2022-08-05T18:19:28.272Z,21.91
2022-08-05T18:22:36.257Z,21.90
2022-08-05T18:25:59.428Z,21.90
2022-08-05T18:29:04.507Z,21.93
2022-08-05T18:32:15.160Z,21.93
2022-08-05T18:35:49.654Z,21.89
2022-08-05T18:38:46.035Z,21.92
2022-08-05T18:41:57.879Z,22.12
2022-08-05T18:45:07.640Z,22.00
2022-08-05T18:48:30.895Z,21.96
2022-08-05T18:52:04.848Z,21.94
2022-08-05T18:55:12.552Z,22.01
2022-08-05T18:58:18.602Z,21.95
2022-08-05T19:01:33.286Z,21.57
2022-08-05T19:05:01.398Z,22.00
2022-08-05T19:08:13.600Z,21.88
2022-08-05T19:11:28.594Z,21.92
2022-08-05T19:15:00.581Z,21.90
2022-08-05T19:18:13.638Z,21.47
2022-08-05T19:21:34.186Z,21.92
2022-08-05T19:24:39.717Z,21.95
2022-08-05T19:28:01.384Z,21.94
2022-08-05T19:31:06.363Z,21.96
2022-08-05T19:34:11.678Z,22.04
2022-08-05T19:37:29.933Z,22.00
2022-08-05T19:40:40.233Z,21.94
2022-08-05T19:44:05.700Z,21.89
2022-08-05T19:47:15.300Z,21.94
2022-08-05T19:50:24.337Z,21.95
2022-08-05T19:54:04.208Z,21.92
2022-08-05T19:56:56.054Z,21.83
2022-08-05T20:00:04.497Z,21.80
2022-08-05T20:03:15.737Z,21.81
2022-08-05T20:06:28.527Z,21.78
2022-08-05T20:09:54.673Z,21.90
2022-08-05T20:12:59.715Z,21.91
2022-08-05T20:16:04.429Z,21.86
2022-08-05T20:19:09.350Z,21.93
2022-08-05T20:22:14.027Z,21.97
2022-08-05T20:25:18.890Z,22.03
2022-08-05T20:28:28.134Z,22.02
2022-08-05T20:31:42.969Z,22.08
2022-08-05T20:34:57.889Z,22.03
2022-08-05T20:38:07.558Z,22.07
2022-08-05T20:41:15.514Z,22.09
2022-08-05T20:44:30.612Z,22.11
2022-08-05T20:47:40.146Z,22.10
2022-08-05T20:50:45.559Z,22.15
2022-08-05T20:53:56.896Z,22.06
2022-08-05T20:57:03.415Z,22.12
2022-08-05T21:00:34.923Z,22.09
2022-08-05T21:03:35.554Z,22.17
2022-08-05T21:06:45.676Z,22.19
2022-08-05T21:09:53.798Z,22.32
2022-08-05T21:13:08.874Z,22.38
2022-08-05T21:16:20.714Z,22.46
2022-08-05T21:19:28.401Z,22.50
2022-08-05T21:22:33.212Z,22.54
2022-08-05T21:25:37.987Z,22.59
2022-08-05T21:28:48.049Z,22.63
2022-08-05T21:31:56.573Z,22.72
2022-08-05T21:35:16.795Z,22.88
2022-08-05T21:38:23.465Z,22.99
2022-08-05T21:41:32.888Z,23.13
2022-08-05T21:44:38.689Z,23.28
2022-08-05T21:47:56.628Z,23.15
2022-08-05T21:51:02.716Z,23.09
2022-08-05T21:54:31.091Z,23.54
2022-08-05T21:57:42.449Z,23.77
2022-08-05T22:00:51.204Z,23.74
2022-08-05T22:03:56.409Z,24.02
2022-08-05T22:07:02.533Z,23.90
2022-08-05T22:10:09.650Z,24.36
2022-08-05T22:14:19.431Z,24.57
2022-08-05T22:16:51.740Z,24.56
2022-08-05T22:20:03.433Z,24.68
2022-08-05T22:24:01.016Z,24.76
2022-08-05T22:27:19.568Z,25.02
2022-08-05T22:30:24.479Z,25.28
2022-08-05T22:33:56.860Z,25.27
2022-08-05T22:36:54.396Z,26.11
2022-08-05T22:39:59.333Z,27.01
2022-08-05T22:43:04.376Z,27.23
2022-08-05T22:46:13.090Z,27.47
2022-08-05T22:50:17.596Z,26.62
2022-08-05T22:52:42.573Z,26.42
2022-08-05T22:55:57.250Z,26.91
2022-08-05T22:59:43.812Z,27.20
2022-08-05T23:02:30.159Z,26.81
2022-08-05T23:05:36.109Z,26.52
2022-08-05T23:08:41.224Z,26.36
2022-08-05T23:11:49.215Z,26.06
2022-08-05T23:14:55.016Z,26.14
2022-08-05T23:18:03.277Z,26.39
2022-08-05T23:21:10.081Z,26.67
2022-08-05T23:24:16.685Z,26.63
2022-08-05T23:27:24.207Z,26.86
2022-08-05T23:30:33.606Z,26.94
2022-08-05T23:34:05.322Z,27.49
2022-08-05T23:37:09.860Z,28.21
2022-08-05T23:40:15.974Z,28.40
2022-08-05T23:44:05.366Z,27.86
2022-08-05T23:46:50.931Z,27.71
2022-08-05T23:49:55.710Z,27.29
2022-08-05T23:53:00.973Z,27.14
2022-08-05T23:56:08.633Z,27.03
2022-08-05T23:59:14.011Z,26.79
